createdAt,value
2022-12-19T00:01:08.604Z,163.48
2022-12-19T00:03:37.129Z,174.85
2022-12-19T00:06:06.240Z,192.70
2022-12-19T00:08:34.764Z,152.18
2022-12-19T00:11:04.837Z,167.13
2022-12-19T00:13:39.936Z,147.80
2022-12-19T00:16:11.864Z,158.05
2022-12-19T00:18:41.014Z,167.95
2022-12-19T00:21:10.997Z,154.93
2022-12-19T00:23:40.041Z,158.27
2022-12-19T00:26:11.279Z,159.45
2022-12-19T00:28:39.669Z,148.30
2022-12-19T00:31:08.227Z,143.88
2022-12-19T00:33:37.892Z,111.53
2022-12-19T00:36:14.138Z,134.13
2022-12-19T00:38:44.942Z,169.82
2022-12-19T00:41:18.427Z,169.43
2022-12-19T00:43:47.200Z,145.25
2022-12-19T00:46:16.683Z,140.40
2022-12-19T00:48:45.252Z,135.35
2022-12-19T00:51:15.806Z,170.30
2022-12-19T00:53:44.497Z,186.40
2022-12-19T00:56:16.007Z,123.82
2022-12-19T00:58:47.038Z,145.50
2022-12-19T01:01:18.546Z,145.40
2022-12-19T01:04:18.682Z,173.13
2022-12-19T01:06:35.834Z,140.93
2022-12-19T01:09:04.286Z,139.95
2022-12-19T01:11:51.278Z,154.77
2022-12-19T01:14:23.087Z,153.00
2022-12-19T01:16:51.983Z,188.82
2022-12-19T01:19:20.637Z,183.52
2022-12-19T01:21:49.053Z,180.98
2022-12-19T01:24:18.370Z,215.40
2022-12-19T01:26:48.938Z,179.23
2022-12-19T01:29:17.356Z,175.15
2022-12-19T01:31:45.771Z,181.40
2022-12-19T01:34:14.609Z,177.15
2022-12-19T01:36:42.934Z,175.07
2022-12-19T01:39:11.273Z,154.60
2022-12-19T01:41:39.778Z,159.55
2022-12-19T01:44:10.550Z,160.07
2022-12-19T01:46:41.178Z,160.82
2022-12-19T01:49:16.047Z,160.82
2022-12-19T01:51:48.321Z,174.90
2022-12-19T01:54:20.932Z,167.93
2022-12-19T01:56:52.128Z,181.52
2022-12-19T01:59:25.091Z,152.77
2022-12-19T02:01:55.292Z,173.90
2022-12-19T02:04:24.352Z,203.93
2022-12-19T02:06:54.117Z,190.30
2022-12-19T02:09:25.343Z,197.23
2022-12-19T02:11:54.035Z,164.23
2022-12-19T02:14:23.967Z,181.02
2022-12-19T02:16:55.914Z,230.50
2022-12-19T02:19:55.746Z,186.02
2022-12-19T02:22:28.296Z,171.60
2022-12-19T02:25:08.902Z,195.35
2022-12-19T02:28:11.345Z,148.40
2022-12-19T02:30:52.333Z,157.45
2022-12-19T02:33:25.987Z,164.25
2022-12-19T02:35:56.014Z,165.68
2022-12-19T02:38:30.194Z,158.35
2022-12-19T02:41:02.793Z,164.60
2022-12-19T02:43:33.697Z,179.73
2022-12-19T02:46:06.152Z,165.68
2022-12-19T02:48:35.024Z,174.60
2022-12-19T02:51:03.400Z,165.88
2022-12-19T02:53:31.892Z,205.40
2022-12-19T02:56:19.241Z,234.98
2022-12-19T02:58:54.360Z,175.57
2022-12-19T03:01:36.574Z,186.82
2022-12-19T03:04:12.708Z,183.18
2022-12-19T03:06:46.343Z,287.08
2022-12-19T03:09:21.922Z,185.55
2022-12-19T03:11:52.020Z,220.77
2022-12-19T03:14:21.826Z,218.50
2022-12-19T03:16:51.722Z,279.75
2022-12-19T03:19:20.192Z,185.95
2022-12-19T03:21:50.272Z,243.75
2022-12-19T03:24:19.533Z,202.52
2022-12-19T03:26:51.210Z,226.90
2022-12-19T03:29:23.129Z,228.90
2022-12-19T03:31:53.801Z,224.55
2022-12-19T03:34:25.785Z,194.85
2022-12-19T03:36:57.008Z,220.88
2022-12-19T03:39:26.928Z,283.33
2022-12-19T03:42:12.872Z,214.68
2022-12-19T03:44:43.919Z,231.35
2022-12-19T03:47:18.547Z,281.88
2022-12-19T03:49:47.217Z,258.52
2022-12-19T03:52:24.696Z,255.63
2022-12-19T03:54:57.591Z,241.20
2022-12-19T03:57:29.678Z,260.15
2022-12-19T04:00:01.516Z,242.27
2022-12-19T04:02:32.188Z,255.18
2022-12-19T04:05:02.276Z,290.77
2022-12-19T04:07:30.843Z,341.25
2022-12-19T04:10:00.026Z,268.58
2022-12-19T04:12:32.798Z,196.90
2022-12-19T04:15:01.206Z,277.48
2022-12-19T04:17:36.946Z,281.38
2022-12-19T04:20:07.960Z,293.48
2022-12-19T04:22:39.777Z,196.75
2022-12-19T04:25:11.377Z,247.65
2022-12-19T04:27:43.032Z,269.77
2022-12-19T04:30:14.990Z,255.05
2022-12-19T04:32:47.994Z,286.23
2022-12-19T04:35:16.839Z,298.63
2022-12-19T04:37:45.343Z,306.67
2022-12-19T04:40:14.666Z,316.67
2022-12-19T04:42:43.130Z,314.23
2022-12-19T04:45:12.123Z,315.38
2022-12-19T04:47:40.512Z,249.25
2022-12-19T04:50:11.248Z,341.52
2022-12-19T04:52:39.745Z,301.92
2022-12-19T04:55:09.360Z,319.85
2022-12-19T04:57:37.862Z,306.73
2022-12-19T05:00:08.730Z,335.90
2022-12-19T05:02:37.283Z,348.60
2022-12-19T05:05:06.435Z,357.52
2022-12-19T05:07:36.244Z,341.85
2022-12-19T05:10:05.028Z,337.02
2022-12-19T05:12:33.598Z,332.73
2022-12-19T05:15:01.955Z,347.05
2022-12-19T05:17:30.300Z,341.42
2022-12-19T05:19:58.780Z,348.98
2022-12-19T05:22:30.316Z,346.23
2022-12-19T05:25:00.051Z,348.92
2022-12-19T05:27:28.390Z,360.73
2022-12-19T05:29:56.769Z,347.25
2022-12-19T05:32:25.208Z,362.55
2022-12-19T05:34:53.591Z,342.20
2022-12-19T05:37:21.913Z,353.83
2022-12-19T05:39:50.236Z,361.52
2022-12-19T05:42:19.980Z,340.63
2022-12-19T05:44:48.350Z,350.08
2022-12-19T05:47:16.673Z,377.73
2022-12-19T05:49:45.132Z,348.40
2022-12-19T05:52:13.547Z,342.88
2022-12-19T05:54:41.979Z,359.33
2022-12-19T05:57:10.390Z,360.55
2022-12-19T05:59:40.135Z,368.10
2022-12-19T06:02:08.633Z,356.65
2022-12-19T06:04:40.004Z,314.20
2022-12-19T06:07:08.685Z,477.35
2022-12-19T06:12:57.108Z,432.40
2022-12-19T06:15:43.818Z,405.17
2022-12-19T06:21:05.464Z,427.48
2022-12-19T06:23:37.842Z,408.42
2022-12-19T06:26:19.390Z,463.35
2022-12-19T06:55:47.577Z,401.55
2022-12-19T06:58:21.393Z,427.15
2022-12-19T07:00:53.147Z,540.78
2022-12-19T07:03:24.259Z,438.40
2022-12-19T07:05:53.018Z,416.95
2022-12-19T07:08:21.736Z,418.73
2022-12-19T07:10:57.740Z,411.92
2022-12-19T07:13:27.509Z,400.98
2022-12-19T07:16:05.319Z,421.13
2022-12-19T07:18:37.220Z,406.85
2022-12-19T07:21:07.372Z,460.75
2022-12-19T07:23:36.288Z,395.98
2022-12-19T07:26:23.662Z,409.60
2022-12-19T07:28:53.457Z,413.25
2022-12-19T07:31:22.057Z,407.15
2022-12-19T07:33:50.819Z,380.80
2022-12-19T07:36:19.332Z,462.77
2022-12-19T07:38:47.806Z,388.63
2022-12-19T07:41:16.573Z,445.60
2022-12-19T07:43:47.809Z,387.10
2022-12-19T07:46:18.711Z,399.17
2022-12-19T07:49:22.667Z,410.55
2022-12-19T07:52:00.596Z,414.23
2022-12-19T07:54:30.199Z,404.80
2022-12-19T07:56:58.880Z,392.40
2022-12-19T07:59:32.204Z,410.10
2022-12-19T08:02:04.505Z,458.10
2022-12-19T08:04:33.350Z,492.92
2022-12-19T08:07:02.300Z,398.15
2022-12-19T08:09:31.197Z,397.27
2022-12-19T08:12:00.111Z,389.60
2022-12-19T08:14:30.235Z,407.10
2022-12-19T08:19:47.282Z,401.10
2022-12-19T08:22:15.689Z,462.48
2022-12-19T08:24:44.492Z,408.92
2022-12-19T08:27:13.257Z,451.73
2022-12-19T08:29:43.259Z,407.38
2022-12-19T08:32:17.065Z,378.65
2022-12-19T08:34:49.554Z,371.52
2022-12-19T08:37:18.341Z,394.75
2022-12-19T08:39:46.944Z,418.75
2022-12-19T08:42:15.927Z,388.30
2022-12-19T08:44:46.145Z,391.70
2022-12-19T08:47:15.128Z,401.67
2022-12-19T08:49:43.985Z,463.95
2022-12-19T08:52:12.699Z,371.13
2022-12-19T08:54:41.608Z,357.60
2022-12-19T08:57:10.615Z,443.38
2022-12-19T08:59:39.489Z,415.65
2022-12-19T09:02:11.770Z,363.48
2022-12-19T09:06:00.192Z,255.40
2022-12-19T09:07:30.899Z,259.75
2022-12-19T09:10:02.695Z,329.83
2022-12-19T09:12:31.738Z,372.95
2022-12-19T09:15:00.335Z,385.52
2022-12-19T09:17:30.682Z,383.02
2022-12-19T09:19:59.912Z,385.92
2022-12-19T09:22:29.274Z,314.75
2022-12-19T09:24:58.618Z,364.33
2022-12-19T09:27:47.462Z,412.40
2022-12-19T09:30:20.924Z,344.30
2022-12-19T09:32:51.009Z,292.98
2022-12-19T09:35:19.607Z,365.23
2022-12-19T09:37:48.525Z,428.58
2022-12-19T09:40:18.765Z,316.70
2022-12-19T09:43:03.465Z,303.80
2022-12-19T09:45:54.829Z,330.15
2022-12-19T09:48:26.258Z,339.85
2022-12-19T09:51:09.442Z,308.92
2022-12-19T09:53:43.808Z,313.40
2022-12-19T09:56:16.682Z,284.77
2022-12-19T09:58:47.844Z,453.10
2022-12-19T10:01:21.723Z,383.83
2022-12-19T10:03:56.024Z,257.38
2022-12-19T10:07:21.337Z,256.70
2022-12-19T10:10:55.590Z,320.67
2022-12-19T10:12:43.618Z,215.75
2022-12-19T10:15:16.281Z,250.73
2022-12-19T10:18:02.952Z,195.98
2022-12-19T10:20:35.546Z,271.90
2022-12-19T10:23:14.706Z,317.05
2022-12-19T10:25:53.197Z,180.40
2022-12-19T10:28:41.055Z,152.98
2022-12-19T10:31:21.603Z,151.48
2022-12-19T10:33:54.883Z,188.23
2022-12-19T10:36:48.875Z,199.00
2022-12-19T10:39:22.007Z,192.63
2022-12-19T10:41:54.119Z,205.88
2022-12-19T10:44:24.008Z,186.30
2022-12-19T10:46:54.221Z,353.77
2022-12-19T10:49:26.257Z,181.93
2022-12-19T10:52:00.008Z,178.25
2022-12-19T10:54:38.653Z,187.43
2022-12-19T10:57:20.559Z,189.18
2022-12-19T10:59:57.547Z,336.15
2022-12-19T11:02:35.261Z,178.40
2022-12-19T11:05:05.142Z,181.65
2022-12-19T11:07:35.017Z,188.73
2022-12-19T11:11:43.511Z,250.27
2022-12-19T11:18:40.767Z,167.48
2022-12-19T11:20:39.220Z,176.52
2022-12-19T11:29:26.832Z,223.13
2022-12-19T11:29:35.301Z,195.60
2022-12-19T11:30:36.671Z,212.45
2022-12-19T11:30:48.002Z,194.35
2022-12-19T11:34:21.451Z,159.18
2022-12-19T11:36:53.507Z,184.18
2022-12-19T11:39:25.256Z,185.52
2022-12-19T11:42:00.831Z,186.90
2022-12-19T11:44:31.704Z,177.80
2022-12-19T11:47:08.217Z,199.55
2022-12-19T11:49:40.169Z,223.73
2022-12-19T11:52:54.179Z,192.40
2022-12-19T11:55:18.324Z,195.98
2022-12-19T11:57:47.735Z,182.82
2022-12-19T12:00:23.550Z,190.80
2022-12-19T12:03:20.452Z,170.27
2022-12-19T12:05:50.405Z,207.88
2022-12-19T12:10:37.676Z,167.73
2022-12-19T12:17:25.452Z,173.02
2022-12-19T12:23:40.326Z,195.73
2022-12-19T12:30:59.650Z,359.15
2022-12-19T12:31:13.255Z,210.00
2022-12-19T12:31:41.320Z,204.32
2022-12-19T12:31:49.076Z,203.75
2022-12-19T12:31:53.909Z,201.40
2022-12-19T12:35:22.563Z,261.95
2022-12-19T12:38:28.978Z,212.57
2022-12-19T12:41:49.485Z,199.98
2022-12-19T12:44:32.893Z,191.23
2022-12-19T12:47:17.884Z,201.27
2022-12-19T12:49:48.397Z,215.38
2022-12-19T12:52:19.969Z,193.43
2022-12-19T12:54:49.797Z,325.33
2022-12-19T12:57:36.898Z,227.77
2022-12-19T13:00:23.315Z,220.27
2022-12-19T13:02:56.326Z,308.88
2022-12-19T13:05:38.644Z,230.40
2022-12-19T13:08:40.068Z,225.38
2022-12-19T13:11:34.991Z,264.85
2022-12-19T13:14:03.513Z,172.77
2022-12-19T13:16:53.838Z,187.75
2022-12-19T13:19:28.356Z,207.15
2022-12-19T13:22:19.903Z,204.40
2022-12-19T13:24:50.726Z,202.85
2022-12-19T13:27:37.070Z,207.55
2022-12-19T13:30:19.863Z,192.82
2022-12-19T13:33:09.322Z,193.57
2022-12-19T13:36:38.031Z,236.93
2022-12-19T13:39:58.422Z,239.57
2022-12-19T13:41:47.132Z,228.02
2022-12-19T13:44:19.138Z,240.60
2022-12-19T13:46:48.662Z,271.08
2022-12-19T13:49:21.536Z,289.00
2022-12-19T13:51:53.422Z,300.33
2022-12-19T13:54:25.990Z,272.33
2022-12-19T13:56:55.843Z,273.83
2022-12-19T13:59:28.233Z,306.05
2022-12-19T14:01:57.547Z,321.73
2022-12-19T14:04:32.065Z,316.25
2022-12-19T14:07:02.962Z,331.15
2022-12-19T14:11:31.399Z,316.10
2022-12-19T14:13:57.432Z,332.25
2022-12-19T14:15:33.931Z,437.65
2022-12-19T14:18:21.888Z,312.27
2022-12-19T14:22:04.314Z,545.83
2022-12-19T14:24:18.484Z,310.52
2022-12-19T14:28:21.102Z,429.92
2022-12-19T14:30:27.441Z,329.23
2022-12-19T14:33:46.021Z,334.38
2022-12-19T14:36:08.398Z,342.83
2022-12-19T14:39:23.375Z,302.42
2022-12-19T14:41:08.325Z,396.27
2022-12-19T14:43:58.694Z,335.80
2022-12-19T14:54:06.175Z,398.08
2022-12-19T14:54:06.398Z,340.02
2022-12-19T14:54:44.435Z,516.95
2022-12-19T14:56:16.611Z,388.25
2022-12-19T14:58:54.700Z,456.27
2022-12-19T15:01:26.923Z,546.33
2022-12-19T15:04:48.862Z,320.50
2022-12-19T15:07:09.248Z,328.40
2022-12-19T15:10:59.935Z,339.95
2022-12-19T15:14:49.425Z,403.83
2022-12-19T15:15:45.946Z,310.10
2022-12-19T15:18:24.785Z,301.55
2022-12-19T15:20:55.747Z,355.95
2022-12-19T15:23:25.532Z,337.65
2022-12-19T15:26:04.529Z,322.85
2022-12-19T15:28:39.278Z,318.65
2022-12-19T15:31:15.271Z,335.27
2022-12-19T15:34:14.336Z,319.90
2022-12-19T15:36:33.138Z,383.45
2022-12-19T15:39:01.698Z,359.30
2022-12-19T15:41:30.170Z,384.25
2022-12-19T15:44:04.892Z,355.15
2022-12-19T15:46:35.861Z,379.90
2022-12-19T15:49:04.535Z,371.17
2022-12-19T15:51:47.511Z,383.90
2022-12-19T15:57:11.350Z,427.40
2022-12-19T15:59:45.875Z,370.48
2022-12-19T16:02:56.543Z,382.38
2022-12-19T16:05:20.395Z,400.00
2022-12-19T16:07:51.665Z,367.83
2022-12-19T16:10:22.141Z,378.75
2022-12-19T16:13:01.375Z,390.20
2022-12-19T16:18:49.901Z,411.58
2022-12-19T16:21:33.679Z,369.55
2022-12-19T16:24:20.124Z,466.80
2022-12-19T16:26:59.101Z,390.25
2022-12-19T16:29:29.863Z,459.48
2022-12-19T16:32:01.803Z,389.27
2022-12-19T16:34:30.774Z,371.45
2022-12-19T16:37:05.383Z,389.95
2022-12-19T16:42:10.402Z,528.67
2022-12-19T16:44:39.020Z,407.45
2022-12-19T16:47:13.826Z,394.63
2022-12-19T16:49:42.870Z,391.38
2022-12-19T16:52:13.303Z,405.90
2022-12-19T16:55:01.594Z,410.88
2022-12-19T16:57:30.167Z,463.73
2022-12-19T17:00:00.133Z,425.70
2022-12-19T17:02:43.766Z,462.52
2022-12-19T17:05:29.280Z,397.33
2022-12-19T17:07:58.300Z,426.25
2022-12-19T17:10:31.403Z,405.42
2022-12-19T17:13:01.198Z,397.25
2022-12-19T17:15:33.737Z,412.73
2022-12-19T17:18:07.871Z,411.25
2022-12-19T17:20:42.595Z,411.33
2022-12-19T17:23:24.461Z,447.63
2022-12-19T17:25:56.711Z,424.60
2022-12-19T17:28:25.700Z,422.70
2022-12-19T17:30:57.382Z,427.05
2022-12-19T17:33:30.425Z,413.17
2022-12-19T17:36:05.506Z,393.60
2022-12-19T17:38:37.480Z,458.77
2022-12-19T17:41:06.848Z,397.10
2022-12-19T17:43:41.083Z,420.50
2022-12-19T17:46:23.127Z,425.75
2022-12-19T17:49:03.735Z,427.33
2022-12-19T17:51:32.538Z,387.45
2022-12-19T17:54:01.069Z,398.17
2022-12-19T17:56:32.490Z,403.73
2022-12-19T17:59:01.225Z,541.25
2022-12-19T18:01:33.301Z,529.50
2022-12-19T18:04:03.728Z,398.15
2022-12-19T18:06:32.561Z,405.10
2022-12-19T18:09:03.196Z,423.58
2022-12-19T18:11:35.513Z,415.67
2022-12-19T18:14:08.994Z,401.13
2022-12-19T18:16:37.577Z,403.77
2022-12-19T18:19:19.627Z,363.90
2022-12-19T18:21:50.637Z,386.50
2022-12-19T18:24:19.395Z,414.40
2022-12-19T18:26:48.253Z,402.08
2022-12-19T18:29:16.847Z,386.77
2022-12-19T18:31:50.967Z,385.63
2022-12-19T18:34:23.533Z,396.15
2022-12-19T18:36:52.579Z,402.40
2022-12-19T18:39:22.970Z,386.38
2022-12-19T18:41:52.987Z,398.63
2022-12-19T18:44:22.608Z,408.20
2022-12-19T18:46:51.761Z,393.15
2022-12-19T18:49:22.982Z,358.33
2022-12-19T18:51:51.784Z,351.45
2022-12-19T18:54:22.686Z,363.95
2022-12-19T18:56:51.913Z,425.35
2022-12-19T18:59:20.431Z,364.02
2022-12-19T19:01:49.157Z,359.65
2022-12-19T19:04:18.636Z,342.73
2022-12-19T19:06:52.066Z,333.65
2022-12-19T19:09:22.537Z,371.40
2022-12-19T19:11:51.034Z,392.58
2022-12-19T19:14:19.944Z,344.17
2022-12-19T19:16:48.611Z,346.65
2022-12-19T19:19:18.831Z,328.08
2022-12-19T19:21:49.536Z,382.42
2022-12-19T19:24:20.170Z,322.95
2022-12-19T19:26:49.654Z,356.50
2022-12-19T19:29:20.082Z,332.63
2022-12-19T19:31:50.165Z,321.80
2022-12-19T19:34:22.283Z,331.95
2022-12-19T19:36:55.842Z,318.38
2022-12-19T19:39:24.917Z,312.45
2022-12-19T19:41:53.714Z,321.85
2022-12-19T19:44:22.429Z,312.92
2022-12-19T19:46:51.069Z,317.30
2022-12-19T19:49:21.297Z,347.88
2022-12-19T19:51:54.358Z,304.23
2022-12-19T19:54:27.461Z,350.88
2022-12-19T19:56:56.388Z,352.40
2022-12-19T19:59:24.965Z,349.77
2022-12-19T20:01:54.498Z,332.58
2022-12-19T20:04:26.364Z,340.40
2022-12-19T20:06:56.636Z,334.48
2022-12-19T20:09:25.240Z,343.35
2022-12-19T20:11:53.835Z,387.50
2022-12-19T20:14:22.626Z,347.27
2022-12-19T20:16:51.959Z,370.73
2022-12-19T20:19:20.687Z,414.13
2022-12-19T20:21:49.276Z,593.78
2022-12-19T20:24:21.088Z,337.13
2022-12-19T20:26:49.655Z,382.52
2022-12-19T20:29:18.121Z,358.35
2022-12-19T20:31:52.174Z,352.75
2022-12-19T20:34:25.934Z,368.25
2022-12-19T20:37:05.697Z,382.60
2022-12-19T20:39:48.063Z,367.10
2022-12-19T20:42:25.278Z,335.02
2022-12-19T20:45:01.929Z,406.10
2022-12-19T20:47:30.657Z,350.52
2022-12-19T20:49:59.974Z,348.33
2022-12-19T20:52:32.637Z,418.08
2022-12-19T20:55:10.348Z,410.50
2022-12-19T20:57:49.394Z,366.77
2022-12-19T21:00:36.740Z,345.60
2022-12-19T21:03:29.505Z,327.92
2022-12-19T21:06:21.154Z,361.30
2022-12-19T21:09:14.566Z,343.00
2022-12-19T21:12:11.122Z,349.92
2022-12-19T21:14:45.520Z,343.38
2022-12-19T21:17:35.383Z,354.27
2022-12-19T21:20:12.214Z,347.50
2022-12-19T21:22:48.956Z,348.17
2022-12-19T21:25:18.387Z,353.23
2022-12-19T21:27:51.413Z,348.17
2022-12-19T21:30:38.257Z,337.67
2022-12-19T21:33:10.667Z,329.52
2022-12-19T21:35:39.645Z,333.58
2022-12-19T21:38:11.703Z,332.02
2022-12-19T21:41:24.501Z,340.90
2022-12-19T21:44:00.730Z,359.90
2022-12-19T21:46:37.726Z,338.92
2022-12-19T21:50:04.044Z,323.55
2022-12-19T21:52:55.703Z,334.00
2022-12-19T21:55:40.102Z,371.77
2022-12-19T21:58:49.720Z,326.83
2022-12-19T22:02:03.060Z,398.42
2022-12-19T22:05:01.416Z,353.85
2022-12-19T22:07:30.655Z,329.17
2022-12-19T22:10:15.423Z,346.67
2022-12-19T22:12:44.416Z,331.63
2022-12-19T22:15:13.689Z,364.15
2022-12-19T22:18:08.738Z,345.50
2022-12-19T22:20:43.129Z,336.00
2022-12-19T22:23:15.573Z,324.60
2022-12-19T22:25:47.143Z,365.77
2022-12-19T22:28:16.265Z,402.55
2022-12-19T22:30:50.203Z,383.35
2022-12-19T22:33:20.825Z,367.33
2022-12-19T22:35:50.308Z,379.15
2022-12-19T22:38:20.410Z,360.42
2022-12-19T22:40:49.702Z,437.45
2022-12-19T22:43:18.230Z,343.13
2022-12-19T22:45:46.962Z,342.15
2022-12-19T22:48:15.827Z,316.80
2022-12-19T22:50:49.175Z,328.05
2022-12-19T22:53:17.735Z,389.77
2022-12-19T22:55:46.265Z,427.85
2022-12-19T22:58:14.967Z,368.75
2022-12-19T23:00:44.251Z,307.92
2022-12-19T23:03:13.372Z,327.73
2022-12-19T23:05:44.494Z,421.50
2022-12-19T23:08:18.507Z,365.90
2022-12-19T23:10:50.397Z,357.38
2022-12-19T23:13:18.886Z,354.13
2022-12-19T23:15:47.520Z,338.73
2022-12-19T23:18:16.166Z,353.83
2022-12-19T23:20:44.729Z,335.58
2022-12-19T23:23:13.495Z,392.05
2022-12-19T23:25:43.899Z,336.30
2022-12-19T23:28:12.580Z,347.40
2022-12-19T23:30:41.158Z,333.00
2022-12-19T23:33:09.856Z,348.55
2022-12-19T23:35:38.346Z,339.27
2022-12-19T23:38:06.889Z,343.35
2022-12-19T23:40:35.707Z,358.90
2022-12-19T23:43:05.973Z,348.70
2022-12-19T23:45:38.570Z,331.90
2022-12-19T23:48:08.346Z,334.75
2022-12-19T23:50:36.819Z,353.88
2022-12-19T23:53:05.212Z,383.90
2022-12-19T23:55:33.691Z,332.98
2022-12-19T23:58:05.407Z,358.42
